FRIANT DAM (MILLERTON) (MIL)

Elevation: 581' · SAN JOAQUIN R basin · Operator: US Bureau of Reclamation

Provisional data, subject to change.
Query executed Friday at 8:04:20   clock

Select a sensor type for a plot of data.
Note: Reservoir Flows are daily averages.

Earlier

Date RES ELE    STORAGE    RES CHG    TOC STO    ABV TOC    OUTFLOW    INFLOW    EVAP    FNF    RIV REL    PPT INC    SPILL   
 FEET   AF   AF   AF   AF   CFS   CFS   CFS   CFS   CFS   INCHES   CFS  
01/14/2016 490.71 189379 840 435500 -246121 147 571 1 497 147 0.19 0
01/15/2016 491.02 190220 841 435500 -245280 148 576 4 630 148 0.06 0
01/16/2016 491.26 190876 656 435500 -- 148 490 11 734 148 0.01 0
01/17/2016 491.49 191505 629 435500 -243995 148 470 5 628 148 0.64 0
01/18/2016 491.80 192353 848 435500 -243147 148 584 8 1028 148 0.37 0
01/19/2016 492.28 193672 1319 435500 -241828 148 819 6 1902 148 0.82 0
01/20/2016 492.85 195244 1572 435500 -240256 148 948 7 1477 148 0.00 0
01/21/2016 493.24 196326 1082 435500 -239174 148 702 8 1026 148 0.01 0
01/22/2016 493.57 197244 918 435500 -- 148 617 6 845 148 0.41 0
01/23/2016 494.01 198469 1225 435500 -237031 149 775 8 2217 149 0.10 0
01/24/2016 494.47 199760 1291 435500 -235740 149 805 5 1373 149 0.00 0
01/25/2016 494.92 201023 1263 435500 -234477 149 793 7 1140 149 0.00 0
01/26/2016 495.24 201926 903 435500 -233574 149 611 7 835 149 0.00 0
01/27/2016 495.52 202719 793 435500 -232781 148 554 6 823 148 0.00 0
01/28/2016 495.80 203511 792 435500 -231989 138 542 5 687 138 0.00 0
01/29/2016 496.10 204363 852 435500 -231137 126 561 5 605 126 0.18 0
01/30/2016 496.45 205362 999 435500 -230138 126 638 8 2806 126 0.62 0
01/31/2016 497.49 208343 2981 435500 -227157 126 1632 3 3345 126 0.48 0
02/01/2016 498.39 210945 2602 435500 115465 126 1443 5 1890 126 0.00 0
02/02/2016 499.02 212775 1830 435500 -222725 101 1028 4 1424 101 0.00 0
02/03/2016 499.36 213770 995 435500 -221730 204 711 5 1137 88 0.00 0
02/04/2016 499.89 215323 1553 435500 -220177 258 1048 7 1100 88 0.00 0
02/05/2016 500.29 216501 1178 435500 -218999 259 858 5 859 88 0.00 0
02/06/2016 500.95 218448 1947 435500 -217052 145 1130 3 1010 88 0.00 0
02/07/2016 501.63 220472 2024 435500 -215028 88 1121 13 939 88 0.00 0
02/08/2016 502.19 222143 1671 435500 -213357 88 945 15 1304 88 0.00 0
02/09/2016 502.47 222983 840 435500 -212517 88 517 6 1197 88 0.00 0
02/10/2016 502.93 224364 1381 435500 -211136 103 806 7 1245 103 0.00 0
02/11/2016 503.58 226329 1965 -- -- -- -- -- -- -- -- --
02/12/2016 -- -- -- -- -- -- -- -- -- -- -- --

Later | Latest

Warning! This data is preliminary and subject to revision.

Show MIL Map | Plot MIL Data | 1 Month MIL Data | Real-Time MIL Data | MIL Info